Time;durP1;ratioP1;P1;durP2;ratioP2;P2;SDS_P1;SDS_P2;PMS_P1;PMS_P2;Temp;Humidity;BMP_temperature;BMP_pressure;BME280_temperature;BME280_humidity;BME280_pressure;Samples;Min_cycle;Max_cycle;Signal;HPM_P1;HPM_P2
2023/10/07 00:02:12;;;;;;;10.20;5.35;;;;;;;9.18;100.00;98204.41;4997453;28;20401;-87
2023/10/07 00:04:38;;;;;;;12.02;5.93;;;;;;;9.21;100.00;98190.75;4997913;28;20442;-84
2023/10/07 00:07:10;;;;;;;11.70;5.53;;;;;;;9.24;100.00;98190.34;4997910;28;20415;-84
2023/10/07 00:09:39;;;;;;;12.57;6.00;;;;;;;9.35;100.00;98194.03;4998594;28;20410;-82
2023/10/07 00:12:05;;;;;;;13.83;6.30;;;;;;;9.37;100.00;98192.00;4998361;28;20449;-84
2023/10/07 00:14:33;;;;;;;11.40;5.38;;;;;;;9.37;100.00;98200.72;4999008;28;20398;-84
2023/10/07 00:17:05;;;;;;;11.27;5.70;;;;;;;9.33;100.00;98204.81;4997711;28;20403;-84
2023/10/07 00:19:33;;;;;;;9.82;5.35;;;;;;;9.29;100.00;98193.91;4998577;28;20398;-83
2023/10/07 00:21:59;;;;;;;9.57;5.03;;;;;;;9.24;100.00;98192.97;4998776;28;20405;-82
2023/10/07 00:24:26;;;;;;;8.25;4.50;;;;;;;9.20;100.00;98189.97;4997692;28;20914;-82
2023/10/07 00:26:52;;;;;;;9.07;5.05;;;;;;;9.17;100.00;98192.25;4997072;28;20422;-82
2023/10/07 00:29:23;;;;;;;9.70;5.07;;;;;;;9.13;100.00;98188.44;4997416;28;20406;-81
2023/10/07 00:31:50;;;;;;;8.82;5.18;;;;;;;9.10;100.00;98196.78;4997269;28;20444;-81
2023/10/07 00:34:26;;;;;;;10.60;5.15;;;;;;;9.05;100.00;98196.66;4997636;28;20406;-83
2023/10/07 00:36:56;;;;;;;10.10;5.28;;;;;;;9.02;100.00;98189.97;4996888;28;20438;-81
2023/10/07 00:39:23;;;;;;;9.80;5.10;;;;;;;9.00;100.00;98188.59;4997528;28;20458;-83
2023/10/07 00:41:58;;;;;;;11.60;5.28;;;;;;;8.96;100.00;98196.13;4997651;28;20490;-81
2023/10/07 00:44:32;;;;;;;9.32;5.18;;;;;;;8.92;100.00;98193.13;4997120;28;20461;-81
2023/10/07 00:49:41;;;;;;;8.90;5.07;;;;;;;8.88;100.00;98186.66;4997084;28;20411;-83
2023/10/07 00:52:12;;;;;;;12.88;6.03;;;;;;;8.90;100.00;98189.91;4997243;28;20407;-83
2023/10/07 00:57:23;;;;;;;9.15;5.00;;;;;;;8.88;100.00;98183.22;4997413;28;20414;-84
2023/10/07 00:59:51;;;;;;;10.52;5.60;;;;;;;8.87;100.00;98177.13;4997899;28;20566;-82
2023/10/07 01:02:22;;;;;;;11.03;5.73;;;;;;;8.86;100.00;98167.63;4998144;28;20421;-83
2023/10/07 01:04:51;;;;;;;9.07;5.03;;;;;;;8.86;100.00;98162.34;4980555;28;20766;-82
2023/10/07 01:07:18;;;;;;;9.40;4.90;;;;;;;8.85;100.00;98167.84;4998012;28;20476;-85
2023/10/07 01:10:09;;;;;;;8.63;5.00;;;;;;;8.83;100.00;98161.97;4998032;28;20402;-84
2023/10/07 01:12:42;;;;;;;10.38;5.13;;;;;;;8.80;100.00;98157.94;4993242;28;20693;-83
2023/10/07 01:15:30;;;;;;;9.13;4.83;;;;;;;8.80;100.00;98151.84;4998011;28;20406;-84
2023/10/07 01:18:05;;;;;;;9.10;5.03;;;;;;;8.78;100.00;98154.72;4999651;28;20410;-82
2023/10/07 01:23:33;;;;;;;9.27;5.13;;;;;;;8.76;100.00;98143.56;4997568;28;20406;-83
2023/10/07 01:25:59;;;;;;;7.93;4.22;;;;;;;8.74;100.00;98150.09;4997482;28;20878;-84
2023/10/07 01:28:26;;;;;;;9.10;4.82;;;;;;;8.71;100.00;98140.78;4997067;28;20646;-84
2023/10/07 01:31:08;;;;;;;10.85;5.95;;;;;;;8.68;100.00;98140.41;4997200;28;20399;-84
2023/10/07 01:33:47;;;;;;;9.82;4.80;;;;;;;8.67;100.00;98138.78;5000552;28;20415;-83
2023/10/07 01:36:23;;;;;;;9.35;5.25;;;;;;;8.65;100.00;98128.44;5000102;28;20407;-81
2023/10/07 01:38:52;;;;;;;9.38;5.05;;;;;;;8.62;100.00;98131.53;5000873;28;20925;-83
2023/10/07 01:41:19;;;;;;;8.45;4.30;;;;;;;8.60;100.00;98120.41;5000502;28;20398;-82
2023/10/07 01:44:05;;;;;;;9.15;4.85;;;;;;;8.57;100.00;98117.41;5000566;28;20863;-82
2023/10/07 01:46:32;;;;;;;8.07;5.00;;;;;;;8.52;100.00;98120.69;4994624;28;20454;-81
2023/10/07 01:49:04;;;;;;;8.82;4.63;;;;;;;8.49;100.00;98129.84;5000246;28;20883;-82
2023/10/07 01:51:31;;;;;;;9.55;5.20;;;;;;;8.48;100.00;98130.09;5000607;28;20402;-83
2023/10/07 01:54:03;;;;;;;9.20;4.80;;;;;;;8.46;100.00;98124.22;5000296;28;20398;-82
2023/10/07 01:56:29;;;;;;;11.10;5.88;;;;;;;8.46;100.00;98130.28;5000406;28;20791;-83
2023/10/07 01:59:04;;;;;;;10.57;5.67;;;;;;;8.43;100.00;98132.56;5000274;28;20438;-82
2023/10/07 02:01:30;;;;;;;12.10;6.23;;;;;;;8.38;100.00;98133.22;5000719;28;20413;-84
2023/10/07 02:04:00;;;;;;;12.40;5.80;;;;;;;8.36;100.00;98132.63;5000735;28;20437;-81
2023/10/07 02:06:26;;;;;;;10.47;5.53;;;;;;;8.35;100.00;98132.84;4994854;28;20443;-83
2023/10/07 02:08:54;;;;;;;10.20;5.40;;;;;;;8.34;100.00;98134.69;4996924;28;20445;-83
2023/10/07 02:11:29;;;;;;;9.32;5.15;;;;;;;8.34;100.00;98145.25;5000239;28;20407;-83
2023/10/07 02:13:55;;;;;;;9.38;5.05;;;;;;;8.35;100.00;98146.03;5000335;28;20431;-83
2023/10/07 02:16:25;;;;;;;9.85;5.22;;;;;;;8.34;100.00;98137.31;4999196;28;20435;-84
2023/10/07 02:18:51;;;;;;;9.98;5.30;;;;;;;8.33;100.00;98143.63;4996794;28;20466;-83
2023/10/07 02:21:22;;;;;;;9.35;4.85;;;;;;;8.32;100.00;98139.38;5000137;28;20901;-83
2023/10/07 02:23:49;;;;;;;10.75;6.15;;;;;;;8.30;100.00;98146.66;5000398;28;20465;-84
2023/10/07 02:26:20;;;;;;;12.23;6.23;;;;;;;8.27;100.00;98148.94;5000698;28;20406;-82
2023/10/07 02:28:52;;;;;;;10.45;5.65;;;;;;;8.25;100.00;98149.16;5006343;28;20458;-81
2023/10/07 02:31:21;;;;;;;12.45;6.20;;;;;;;8.24;100.00;98154.63;4991266;28;20406;-82
2023/10/07 02:33:51;;;;;;;10.95;5.82;;;;;;;8.23;100.00;98147.75;5000352;28;20537;-84
2023/10/07 02:36:28;;;;;;;10.70;5.70;;;;;;;8.22;100.00;98154.03;5000502;28;20398;-84
2023/10/07 02:38:55;;;;;;;10.27;5.47;;;;;;;8.21;100.00;98152.41;4999657;28;20454;-83
2023/10/07 02:41:21;;;;;;;9.63;5.10;;;;;;;8.18;100.00;98153.69;5000637;28;20407;-83
2023/10/07 02:43:48;;;;;;;8.27;4.63;;;;;;;8.16;100.00;98161.78;4998710;28;20782;-82
2023/10/07 02:46:34;;;;;;;11.60;6.10;;;;;;;8.12;100.00;98157.97;4998806;28;20446;-83
2023/10/07 02:49:05;;;;;;;10.88;5.60;;;;;;;8.10;100.00;98159.22;4998616;28;20406;-84
2023/10/07 02:51:32;;;;;;;12.52;5.93;;;;;;;8.06;100.00;98161.47;4998976;28;20486;-80
2023/10/07 02:54:05;;;;;;;12.20;6.15;;;;;;;8.05;100.00;98165.13;4999579;28;20457;-80
2023/10/07 02:56:43;;;;;;;10.70;5.03;;;;;;;8.03;100.00;98163.75;4998223;28;20407;-80
2023/10/07 02:59:25;;;;;;;10.10;5.50;;;;;;;8.04;100.00;98168.78;4998768;28;20406;-83
2023/10/07 03:02:12;;;;;;;10.50;5.45;;;;;;;8.02;100.00;98164.75;4998646;28;20410;-81
2023/10/07 03:04:41;;;;;;;10.27;5.53;;;;;;;8.02;100.00;98168.22;4998450;28;20410;-82
2023/10/07 03:07:13;;;;;;;16.35;6.63;;;;;;;7.99;100.00;98160.72;4998868;28;20418;-83
2023/10/07 03:09:42;;;;;;;9.35;5.05;;;;;;;8.00;100.00;98158.88;4985063;28;20401;-83
2023/10/07 03:12:13;;;;;;;10.43;5.72;;;;;;;8.00;100.00;98164.16;4996633;28;20965;-82
2023/10/07 03:14:43;;;;;;;14.38;6.90;;;;;;;7.97;100.00;98152.22;4980916;28;20905;-81
2023/10/07 03:17:17;;;;;;;12.45;5.85;;;;;;;7.98;100.00;98158.28;5002488;28;20411;-82
2023/10/07 03:19:58;;;;;;;10.07;5.25;;;;;;;7.95;100.00;98154.28;5002948;28;20410;-80
2023/10/07 03:22:28;;;;;;;10.90;5.38;;;;;;;7.94;100.00;98157.13;4998333;28;20926;-81
2023/10/07 03:24:59;;;;;;;8.32;4.82;;;;;;;7.93;100.00;98156.31;4998757;28;20806;-81
2023/10/07 03:27:26;;;;;;;8.93;5.05;;;;;;;7.94;100.00;98147.38;4991101;28;20733;-81
2023/10/07 03:30:01;;;;;;;9.75;5.25;;;;;;;7.93;100.00;98158.13;4998290;28;20402;-81
2023/10/07 03:32:53;;;;;;;8.27;5.00;;;;;;;7.90;100.00;98153.28;4983220;28;20402;-82
2023/10/07 03:35:35;;;;;;;9.80;5.45;;;;;;;7.91;100.00;98150.44;4997450;28;20429;-82
2023/10/07 03:38:04;;;;;;;9.50;4.93;;;;;;;7.91;100.00;98160.16;4998359;28;20414;-81
2023/10/07 03:40:35;;;;;;;9.40;5.07;;;;;;;7.88;100.00;98166.69;4998772;28;20779;-80
2023/10/07 03:43:01;;;;;;;9.13;4.72;;;;;;;7.87;100.00;98162.44;4999228;28;20438;-82
2023/10/07 03:45:29;;;;;;;8.18;4.53;;;;;;;7.87;100.00;98167.72;4999321;28;20399;-82
2023/10/07 03:47:57;;;;;;;8.35;4.80;;;;;;;7.86;100.00;98174.00;4999780;28;20421;-84
2023/10/07 03:50:34;;;;;;;9.10;5.18;;;;;;;7.85;100.00;98185.56;5000265;28;20406;-83
2023/10/07 03:53:01;;;;;;;9.20;4.97;;;;;;;7.86;100.00;98183.75;4999607;28;20435;-83
2023/10/07 03:55:28;;;;;;;9.95;5.50;;;;;;;7.84;100.00;98205.03;4997359;28;20410;-82
2023/10/07 03:57:55;;;;;;;8.85;5.07;;;;;;;7.82;100.00;98206.28;4998355;28;20446;-81
2023/10/07 04:00:28;;;;;;;10.80;5.28;;;;;;;7.78;100.00;98206.69;4998234;28;20489;-79
2023/10/07 04:03:01;;;;;;;9.85;5.30;;;;;;;7.75;100.00;98199.22;4997334;28;20539;-80
2023/10/07 04:05:31;;;;;;;10.52;5.38;;;;;;;7.74;100.00;98200.22;4998130;28;20407;-79
2023/10/07 04:08:02;;;;;;;9.38;5.03;;;;;;;7.73;100.00;98205.72;4998016;28;20474;-80
2023/10/07 04:10:36;;;;;;;9.48;4.97;;;;;;;7.71;100.00;98197.22;4990641;28;20402;-79
2023/10/07 04:13:07;;;;;;;9.20;5.05;;;;;;;7.72;100.00;98198.84;4998453;28;20426;-79
2023/10/07 04:15:36;;;;;;;9.93;5.30;;;;;;;7.72;100.00;98201.47;4999332;28;20463;-79
2023/10/07 04:18:08;;;;;;;13.23;5.80;;;;;;;7.70;100.00;98188.50;4999010;28;20403;-80
2023/10/07 04:23:24;;;;;;;11.90;5.72;;;;;;;7.74;100.00;98202.06;4999189;28;20435;-79
2023/10/07 04:25:50;;;;;;;15.52;6.80;;;;;;;7.69;100.00;98196.63;4998412;28;20482;-80
2023/10/07 04:28:19;;;;;;;10.90;5.78;;;;;;;7.67;100.00;98188.91;4998143;28;20431;-83
2023/10/07 04:30:53;;;;;;;11.57;5.47;;;;;;;7.65;100.00;98190.97;4998294;28;20394;-81
2023/10/07 04:33:39;;;;;;;9.50;4.90;;;;;;;7.64;100.00;98196.47;4998887;28;20434;-82
2023/10/07 04:36:11;;;;;;;8.73;4.97;;;;;;;7.62;100.00;98193.22;4998209;28;20483;-81
2023/10/07 04:38:52;;;;;;;8.77;4.83;;;;;;;7.57;100.00;98187.78;4998826;28;20415;-82
2023/10/07 04:43:58;;;;;;;8.30;4.53;;;;;;;7.53;100.00;98174.22;4999391;28;20406;-81
2023/10/07 04:46:28;;;;;;;8.13;4.47;;;;;;;7.50;100.00;98174.66;5001589;28;20398;-82
2023/10/07 04:48:58;;;;;;;9.23;5.20;;;;;;;7.47;100.00;98185.59;4998724;28;20475;-80
2023/10/07 04:53:58;;;;;;;8.13;4.18;;;;;;;7.41;100.00;98204.09;4999016;28;20407;-82
2023/10/07 04:56:25;;;;;;;7.87;4.67;;;;;;;7.37;100.00;98207.13;5004533;28;20414;-82
2023/10/07 04:58:53;;;;;;;9.68;5.28;;;;;;;7.35;100.00;98205.75;4992506;28;20415;-82
2023/10/07 05:01:22;;;;;;;10.60;5.75;;;;;;;7.32;100.00;98188.53;4980972;28;20404;-82
2023/10/07 05:03:51;;;;;;;10.80;5.50;;;;;;;7.32;100.00;98200.88;4979864;28;20408;-79
2023/10/07 05:06:18;;;;;;;9.82;5.57;;;;;;;7.29;100.00;98206.59;4979102;28;20471;-81
2023/10/07 05:08:45;;;;;;;9.30;5.40;;;;;;;7.26;100.00;98199.09;4979453;28;20432;-83
2023/10/07 05:11:17;;;;;;;8.52;5.07;;;;;;;7.25;100.00;98194.84;4979444;28;20404;-84
2023/10/07 05:13:45;;;;;;;9.73;5.43;;;;;;;7.20;100.00;98187.56;4960930;28;20411;-82
2023/10/07 05:16:11;;;;;;;9.60;5.10;;;;;;;7.20;100.00;98181.50;4986748;28;20406;-83
2023/10/07 05:18:38;;;;;;;10.55;6.20;;;;;;;7.19;100.00;98178.06;4997778;28;20406;-83
2023/10/07 05:21:04;;;;;;;9.32;5.40;;;;;;;7.19;100.00;98185.97;4999555;28;20399;-79
2023/10/07 05:23:32;;;;;;;10.90;5.55;;;;;;;7.17;100.00;98179.28;4996845;28;20444;-81
2023/10/07 05:26:03;;;;;;;8.30;5.05;;;;;;;7.15;100.00;98186.56;4996559;28;20441;-82
2023/10/07 05:28:32;;;;;;;12.88;6.30;;;;;;;7.14;100.00;98192.88;4996494;28;20448;-82
2023/10/07 05:31:00;;;;;;;9.80;5.28;;;;;;;7.13;100.00;98194.69;4997737;28;20402;-81
2023/10/07 05:33:28;;;;;;;10.32;5.25;;;;;;;7.15;100.00;98205.00;4997664;28;20410;-83
2023/10/07 05:35:59;;;;;;;10.05;5.38;;;;;;;7.13;100.00;98207.88;4998023;28;20417;-81
2023/10/07 05:38:26;;;;;;;9.93;5.40;;;;;;;7.11;100.00;98211.72;4997581;28;20406;-82
2023/10/07 05:40:54;;;;;;;10.00;5.40;;;;;;;7.10;100.00;98213.53;4998544;28;20402;-84
2023/10/07 05:43:21;;;;;;;10.60;5.07;;;;;;;7.09;100.00;98216.38;5000852;28;20975;-82
2023/10/07 05:45:48;;;;;;;8.70;4.87;;;;;;;7.07;100.00;98210.53;4998728;28;20402;-82
2023/10/07 05:48:14;;;;;;;9.43;5.65;;;;;;;7.05;100.00;98216.00;4999522;28;20410;-83
2023/10/07 05:50:41;;;;;;;8.25;4.63;;;;;;;7.06;100.00;98212.34;4998089;28;20422;-83
2023/10/07 05:53:08;;;;;;;9.88;5.25;;;;;;;7.08;100.00;98222.66;4997278;28;20398;-83
2023/10/07 05:55:34;;;;;;;8.73;4.63;;;;;;;7.09;100.00;98211.91;4998403;28;20426;-83
2023/10/07 05:58:02;;;;;;;9.20;5.32;;;;;;;7.11;100.00;98211.72;4998890;28;20402;-82
2023/10/07 06:00:31;;;;;;;8.27;4.50;;;;;;;7.12;100.00;98208.06;4998489;28;20429;-83
2023/10/07 06:02:57;;;;;;;9.85;5.72;;;;;;;7.14;100.00;98200.78;4979059;28;20404;-84
2023/10/07 06:05:29;;;;;;;11.87;5.60;;;;;;;7.14;100.00;98204.19;5000523;28;20449;-81
2023/10/07 06:07:57;;;;;;;8.00;4.57;;;;;;;7.15;100.00;98200.53;4983975;28;20446;-80
2023/10/07 06:10:24;;;;;;;8.07;4.70;;;;;;;7.19;100.00;98209.66;4998868;28;20402;-83
2023/10/07 06:12:51;;;;;;;11.75;6.20;;;;;;;7.19;100.00;98220.19;5000677;28;20433;-84
2023/10/07 06:15:18;;;;;;;10.02;5.35;;;;;;;7.24;100.00;98216.91;4997814;28;20406;-84
2023/10/07 06:17:45;;;;;;;10.60;5.53;;;;;;;7.27;100.00;98212.06;4997791;28;20807;-85
2023/10/07 06:20:14;;;;;;;10.83;5.77;;;;;;;7.33;100.00;98213.84;5001271;28;20421;-86
2023/10/07 06:22:45;;;;;;;9.38;5.30;;;;;;;7.36;100.00;98213.44;5001132;28;20399;-82
2023/10/07 06:25:12;;;;;;;10.77;5.80;;;;;;;7.39;100.00;98226.16;5002161;28;20418;-84
2023/10/07 06:27:40;;;;;;;10.80;5.07;;;;;;;7.44;100.00;98216.84;5000860;28;20426;-82
2023/10/07 06:30:09;;;;;;;10.15;5.85;;;;;;;7.49;100.00;98219.66;4987239;28;20408;-83
2023/10/07 06:32:54;;;;;;;9.77;5.35;;;;;;;7.55;100.00;98216.97;4998135;28;20398;-83
2023/10/07 06:35:23;;;;;;;12.57;5.80;;;;;;;7.62;100.00;98215.09;4995232;28;20441;-84
2023/10/07 06:37:51;;;;;;;9.80;5.10;;;;;;;7.74;100.00;98192.31;4988799;28;20539;-85
2023/10/07 06:40:29;;;;;;;10.88;5.65;;;;;;;7.91;100.00;98189.97;4999164;28;20410;-86
2023/10/07 06:42:58;;;;;;;10.90;5.73;;;;;;;8.17;100.00;98204.81;5002055;28;20522;-84
2023/10/07 06:45:29;;;;;;;9.90;4.75;;;;;;;8.44;100.00;98213.31;4986159;28;20436;-84
2023/10/07 06:47:59;;;;;;;8.63;4.07;;;;;;;8.75;100.00;98215.06;4993022;28;20512;-84
2023/10/07 06:50:27;;;;;;;7.78;4.30;;;;;;;9.07;100.00;98226.28;4985559;28;20404;-82
2023/10/07 06:52:55;;;;;;;6.50;3.58;;;;;;;9.38;100.00;98231.41;4995691;28;20411;-83
2023/10/07 06:55:21;;;;;;;9.50;4.97;;;;;;;9.67;100.00;98240.38;5001841;28;20398;-84
2023/10/07 06:57:48;;;;;;;15.47;6.30;;;;;;;9.93;100.00;98239.19;5005885;28;20414;-82
2023/10/07 07:00:27;;;;;;;10.98;5.03;;;;;;;10.28;100.00;98237.47;4987208;28;20803;-82
2023/10/07 07:02:59;;;;;;;8.25;4.40;;;;;;;10.63;100.00;98249.94;4989429;28;20417;-81
2023/10/07 07:05:26;;;;;;;8.90;4.60;;;;;;;11.00;100.00;98251.28;5005341;28;20493;-81
2023/10/07 07:07:52;;;;;;;11.13;5.20;;;;;;;11.39;100.00;98265.63;5007096;28;20424;-83
2023/10/07 07:10:27;;;;;;;9.10;4.75;;;;;;;11.63;100.00;98259.22;5005923;28;20399;-82
2023/10/07 07:12:58;;;;;;;9.60;4.13;;;;;;;11.95;100.00;98248.94;5004157;28;20410;-83
2023/10/07 07:15:28;;;;;;;12.05;4.80;;;;;;;12.12;100.00;98253.50;5008005;28;20398;-83
2023/10/07 07:20:53;;;;;;;7.45;3.85;;;;;;;12.23;100.00;98247.31;4995584;28;20406;-83
2023/10/07 07:23:22;;;;;;;7.87;4.13;;;;;;;12.24;100.00;98239.13;5010460;28;20509;-81
2023/10/07 07:28:30;;;;;;;6.35;3.42;;;;;;;12.05;100.00;98252.84;4983257;28;20463;-84
2023/10/07 07:30:59;;;;;;;6.38;3.33;;;;;;;11.97;100.00;98254.84;4991063;28;20409;-83
2023/10/07 07:33:37;;;;;;;7.43;4.00;;;;;;;11.97;100.00;98248.72;5004469;28;20399;-84
2023/10/07 07:36:18;;;;;;;13.13;5.30;;;;;;;11.99;100.00;98246.63;5002804;28;20402;-84
2023/10/07 07:38:44;;;;;;;11.40;5.38;;;;;;;12.16;100.00;98233.41;5005249;28;20898;-86
2023/10/07 07:41:26;;;;;;;10.57;5.30;;;;;;;12.36;100.00;98245.16;5006290;28;20871;-85
2023/10/07 07:43:59;;;;;;;11.13;4.90;;;;;;;12.68;100.00;98248.03;5006869;28;20434;-84
2023/10/07 07:49:08;;;;;;;8.48;4.20;;;;;;;13.17;100.00;98232.25;5698723;23;20429;-86
2023/10/07 07:51:38;;;;;;;9.63;4.55;;;;;;;13.41;100.00;98238.13;5103785;23;20444;-83
2023/10/07 07:56:42;;;;;;;14.23;5.35;;;;;;;13.70;100.00;98234.22;5692385;23;20979;-87
2023/10/07 07:59:14;;;;;;;16.75;5.13;;;;;;;13.89;100.00;98235.50;5022796;28;20524;-84
2023/10/07 08:01:44;;;;;;;11.63;4.82;;;;;;;14.12;100.00;98244.22;4999983;28;20648;-83
2023/10/07 08:04:17;;;;;;;11.80;5.07;;;;;;;14.28;100.00;98236.09;5003650;28;20941;-82
2023/10/07 08:06:46;;;;;;;13.30;5.00;;;;;;;14.64;100.00;98237.22;4998655;28;20413;-77
2023/10/07 08:09:13;;;;;;;12.63;4.93;;;;;;;14.90;100.00;98237.34;5001380;28;20406;-78
2023/10/07 08:11:40;;;;;;;12.65;4.40;;;;;;;15.20;100.00;98234.06;5001143;28;20455;-78
2023/10/07 08:14:10;;;;;;;8.17;4.27;;;;;;;15.46;100.00;98238.44;5000139;28;20433;-78
2023/10/07 08:16:51;;;;;;;8.80;4.05;;;;;;;15.50;100.00;98245.66;4996098;28;20413;-80
2023/10/07 08:19:20;;;;;;;13.13;4.93;;;;;;;15.35;100.00;98252.78;5003056;28;20394;-79
2023/10/07 08:21:51;;;;;;;8.40;4.00;;;;;;;15.42;100.00;98253.34;5003783;28;20401;-78
2023/10/07 08:24:18;;;;;;;8.50;3.63;;;;;;;15.36;100.00;98251.75;5008041;28;20410;-82
2023/10/07 08:26:48;;;;;;;10.30;4.63;;;;;;;15.25;100.00;98242.09;5005384;28;20395;-82
2023/10/07 08:29:30;;;;;;;7.97;3.85;;;;;;;15.50;100.00;98244.84;4996560;28;20410;-82
2023/10/07 08:31:57;;;;;;;10.98;4.65;;;;;;;15.57;100.00;98241.97;5004746;28;20394;-80
2023/10/07 08:34:32;;;;;;;11.85;4.13;;;;;;;15.93;100.00;98250.91;4996443;28;20397;-79
2023/10/07 08:37:01;;;;;;;8.90;3.47;;;;;;;16.32;100.00;98245.84;4999705;28;20393;-81
2023/10/07 08:39:28;;;;;;;8.87;4.50;;;;;;;16.55;100.00;98246.13;4998387;28;20434;-82
2023/10/07 08:41:58;;;;;;;8.00;4.10;;;;;;;16.71;100.00;98238.13;5000532;28;20393;-80
2023/10/07 08:44:31;;;;;;;7.38;3.50;;;;;;;16.82;100.00;98237.03;5000032;28;20457;-79
2023/10/07 08:47:04;;;;;;;13.85;3.95;;;;;;;16.35;100.00;98229.28;4998745;28;20441;-81
2023/10/07 08:49:35;;;;;;;7.93;3.77;;;;;;;16.25;100.00;98238.09;4997208;28;20398;-80
2023/10/07 08:52:11;;;;;;;7.18;3.30;;;;;;;16.35;100.00;98238.13;4996286;28;20431;-80
2023/10/07 08:54:37;;;;;;;6.88;3.22;;;;;;;16.23;100.00;98243.72;5000299;28;20737;-80
2023/10/07 08:57:15;;;;;;;7.75;2.92;;;;;;;16.31;100.00;98252.28;5002203;28;20418;-80
2023/10/07 08:59:49;;;;;;;5.10;2.72;;;;;;;16.35;100.00;98248.00;4999822;28;20878;-81
2023/10/07 09:02:26;;;;;;;6.43;3.28;;;;;;;16.41;100.00;98231.69;4999300;28;20427;-81
2023/10/07 09:04:55;;;;;;;7.80;3.47;;;;;;;16.46;100.00;98242.41;5003260;28;20967;-80
2023/10/07 09:07:22;;;;;;;7.75;3.55;;;;;;;16.19;100.00;98236.50;5002668;28;20947;-79
2023/10/07 09:09:49;;;;;;;8.55;3.70;;;;;;;16.13;100.00;98232.22;5000419;28;20424;-80
2023/10/07 09:12:15;;;;;;;6.97;3.55;;;;;;;16.21;100.00;98221.81;5004413;28;20461;-80
2023/10/07 09:14:51;;;;;;;10.17;3.87;;;;;;;16.09;100.00;98231.13;5001293;28;20408;-80
2023/10/07 09:17:20;;;;;;;9.10;4.18;;;;;;;15.98;97.79;98233.00;4995334;28;20402;-80
2023/10/07 09:19:52;;;;;;;9.95;4.15;;;;;;;15.97;97.04;98234.06;5004533;28;20818;-80
2023/10/07 09:22:24;;;;;;;6.88;3.30;;;;;;;16.04;99.45;98236.47;5001194;28;20397;-81
2023/10/07 09:24:54;;;;;;;8.52;4.05;;;;;;;15.93;94.56;98233.00;4986621;28;20525;-81
2023/10/07 09:27:37;;;;;;;7.80;3.58;;;;;;;16.19;100.00;98234.63;5012304;28;20813;-80
2023/10/07 09:30:33;;;;;;;6.18;3.10;;;;;;;16.39;100.00;98239.16;4997294;28;20480;-80
2023/10/07 09:32:55;;;;;;;7.80;3.65;;;;;;;16.40;100.00;98250.66;5002194;28;20482;-81
2023/10/07 09:35:22;;;;;;;10.88;3.45;;;;;;;16.29;96.44;98247.22;4997398;28;20421;-81
2023/10/07 09:37:53;;;;;;;8.80;3.72;;;;;;;16.16;94.70;98253.06;5005939;28;20424;-80
2023/10/07 09:41:07;;;;;;;5.78;2.90;;;;;;;16.36;100.00;98262.97;4999217;28;20850;-81
2023/10/07 09:43:13;;;;;;;7.47;3.05;;;;;;;16.31;100.00;98261.09;5001210;28;21102;-81
2023/10/07 09:45:39;;;;;;;7.07;3.40;;;;;;;16.24;100.00;98256.00;5009220;28;20410;-81
2023/10/07 09:48:08;;;;;;;5.45;2.90;;;;;;;16.25;100.00;98246.91;5002335;28;20426;-81
2023/10/07 09:50:37;;;;;;;10.40;4.20;;;;;;;16.11;100.00;98259.19;5008200;28;20408;-78
2023/10/07 09:53:22;;;;;;;11.48;4.03;;;;;;;16.07;100.00;98252.78;4997999;28;20404;-79
2023/10/07 09:56:09;;;;;;;7.38;2.95;;;;;;;16.17;100.00;98257.31;5005319;28;20690;-81
2023/10/07 09:58:52;;;;;;;5.93;2.87;;;;;;;16.28;100.00;98258.94;5012686;28;20396;-79
2023/10/07 10:01:37;;;;;;;8.20;3.50;;;;;;;16.23;100.00;98257.09;5011911;28;20393;-79
2023/10/07 10:04:32;;;;;;;6.43;3.10;;;;;;;16.23;100.00;98262.44;5008685;28;20403;-80
2023/10/07 10:07:21;;;;;;;5.97;2.95;;;;;;;16.31;100.00;98268.31;5005906;28;20405;-79
2023/10/07 10:10:06;;;;;;;7.50;3.45;;;;;;;16.33;100.00;98264.28;5006413;28;20397;-80
2023/10/07 10:12:49;;;;;;;7.72;3.33;;;;;;;16.53;100.00;98282.22;5001802;28;20713;-78
2023/10/07 10:17:53;;;;;;;7.60;3.65;;;;;;;16.44;100.00;98268.59;5005250;28;20415;-79
2023/10/07 10:20:21;;;;;;;8.48;3.60;;;;;;;16.33;100.00;98274.97;5004821;28;20402;-79
2023/10/07 10:22:51;;;;;;;7.57;3.28;;;;;;;16.49;100.00;98273.91;5004605;28;20451;-83
2023/10/07 10:25:33;;;;;;;8.43;3.90;;;;;;;16.37;100.00;98273.41;5008589;28;20448;-80
2023/10/07 10:28:03;;;;;;;7.22;3.28;;;;;;;16.62;100.00;98273.41;5003260;28;20512;-78
2023/10/07 10:30:29;;;;;;;5.85;2.92;;;;;;;16.73;100.00;98268.06;5007523;28;20527;-80
2023/10/07 10:33:00;;;;;;;6.78;3.33;;;;;;;16.79;100.00;98258.97;5002699;28;20533;-79
2023/10/07 10:35:27;;;;;;;6.68;3.00;;;;;;;16.76;100.00;98262.19;5000790;28;20430;-79
2023/10/07 10:37:56;;;;;;;6.33;3.27;;;;;;;16.77;100.00;98255.75;5003494;28;20421;-80
2023/10/07 10:40:31;;;;;;;6.25;2.92;;;;;;;16.90;100.00;98257.91;5004622;28;20463;-83
2023/10/07 10:42:57;;;;;;;7.00;3.58;;;;;;;16.91;100.00;98254.16;5008342;28;20422;-80
2023/10/07 10:45:25;;;;;;;5.78;3.03;;;;;;;16.89;100.00;98251.75;5006523;28;20442;-80
2023/10/07 10:47:52;;;;;;;6.30;3.10;;;;;;;16.96;100.00;98254.13;5007051;28;20419;-80
2023/10/07 10:50:20;;;;;;;7.75;3.85;;;;;;;16.86;100.00;98249.59;5006985;28;20405;-81
2023/10/07 10:52:49;;;;;;;7.97;3.65;;;;;;;17.08;100.00;98256.50;4999691;28;20430;-80
2023/10/07 10:55:15;;;;;;;8.97;3.80;;;;;;;17.14;100.00;98252.75;5001971;28;20410;-80
2023/10/07 10:57:43;;;;;;;4.95;2.53;;;;;;;17.30;100.00;98243.59;5008279;28;20437;-80
2023/10/07 11:00:19;;;;;;;6.05;2.78;;;;;;;17.43;100.00;98248.38;4987594;28;20401;-80
2023/10/07 11:02:46;;;;;;;5.93;2.90;;;;;;;17.49;100.00;98246.47;5010887;28;20406;-80
2023/10/07 11:05:13;;;;;;;6.18;3.17;;;;;;;17.51;100.00;98238.97;5008339;28;20503;-81
2023/10/07 11:07:39;;;;;;;5.43;2.88;;;;;;;17.57;100.00;98244.03;5006717;28;20428;-80
2023/10/07 11:10:07;;;;;;;5.88;2.83;;;;;;;17.66;100.00;98236.25;5002411;28;20802;-83
2023/10/07 11:12:33;;;;;;;10.13;3.70;;;;;;;17.38;100.00;98222.41;5003553;28;20401;-80
2023/10/07 11:15:07;;;;;;;7.10;3.05;;;;;;;17.40;100.00;98230.19;5011892;28;20783;-80
2023/10/07 11:17:37;;;;;;;5.28;2.78;;;;;;;17.49;100.00;98227.75;4999599;28;20409;-78
2023/10/07 11:20:08;;;;;;;6.05;3.00;;;;;;;17.49;100.00;98233.09;5012618;28;20405;-79
2023/10/07 11:22:37;;;;;;;6.85;3.47;;;;;;;17.47;100.00;98229.88;5001868;28;21135;-79
2023/10/07 11:25:06;;;;;;;6.57;3.28;;;;;;;17.54;100.00;98231.19;5010425;28;20420;-80
2023/10/07 11:27:32;;;;;;;7.32;2.95;;;;;;;17.55;100.00;98214.06;5007791;28;20446;-81
2023/10/07 11:30:02;;;;;;;7.78;3.40;;;;;;;17.46;100.00;98215.69;5003381;28;20443;-80
2023/10/07 11:32:38;;;;;;;6.05;3.45;;;;;;;17.50;100.00;98218.63;5003498;28;20401;-79
2023/10/07 11:35:16;;;;;;;6.85;3.75;;;;;;;17.51;100.00;98212.22;5004679;28;20904;-80
2023/10/07 11:37:49;;;;;;;7.20;4.38;;;;;;;17.46;100.00;98212.22;5003810;28;20827;-81
2023/10/07 11:40:15;;;;;;;7.68;3.63;;;;;;;17.23;100.00;98205.63;5000955;28;20398;-80
2023/10/07 11:42:42;;;;;;;8.38;3.65;;;;;;;17.25;100.00;98208.84;5004890;28;20477;-78
2023/10/07 11:45:09;;;;;;;7.50;3.10;;;;;;;17.19;100.00;98212.59;5002807;28;20445;-79
2023/10/07 11:47:36;;;;;;;6.90;3.27;;;;;;;17.16;100.00;98221.97;4984815;28;20515;-83
2023/10/07 11:50:04;;;;;;;7.35;3.35;;;;;;;17.17;100.00;98212.88;5002889;28;20433;-79
2023/10/07 11:52:33;;;;;;;9.02;4.93;;;;;;;17.15;100.00;98217.69;5004944;28;20749;-79
2023/10/07 11:55:00;;;;;;;15.55;7.38;;;;;;;17.20;100.00;98216.88;5002816;28;20407;-79
2023/10/07 11:57:27;;;;;;;20.58;9.05;;;;;;;17.28;100.00;98217.13;5001755;28;20561;-83
2023/10/07 11:59:54;;;;;;;13.38;5.53;;;;;;;17.32;100.00;98212.00;5008526;28;20413;-79
2023/10/07 12:02:21;;;;;;;12.35;4.80;;;;;;;17.33;100.00;98211.75;5014356;28;20397;-82
2023/10/07 12:04:50;;;;;;;7.57;3.60;;;;;;;17.46;100.00;98204.19;5012997;28;20389;-85
2023/10/07 12:07:17;;;;;;;9.85;3.70;;;;;;;17.42;100.00;98210.09;5003238;28;20846;-81
2023/10/07 12:09:46;;;;;;;6.20;3.13;;;;;;;17.49;100.00;98215.16;5001082;28;20762;-82
2023/10/07 12:12:13;;;;;;;6.65;3.20;;;;;;;17.54;100.00;98222.34;5004761;28;20397;-83
2023/10/07 12:14:39;;;;;;;5.90;3.05;;;;;;;17.52;100.00;98224.50;5012407;28;20404;-81